Terminal Aerodrome Forecast
Issued by NWS

Home | Current Version | Previous Version | Text Only | Print | Product List | Glossary On
Versions: 1 2 3 4 5 6 7 8 9 10 11 12 13 14 15 16 17 18 19 20 21 22 23 24 25 26 27 28 29 30 31 32 33 34
000
FTUS41 KCTP 032118 AAA
TAFAOO
TAF AMD
KAOO 032118Z 0321/0418 30005KT P6SM VCSH BKN050
     FM040300 30002KT 4SM BR OVC025
     FM040600 28002KT 1SM BR OVC007
     FM041400 VRB03KT 4SM BR BKN025 OVC035=

USA.gov is the U.S. government's official web portal to all federal, state and local government web resources and services.